テルアビブ / ベン・グリオン の空港の天気 - METARとTAF

ベン・グリオン国際空港(テルアビブ) ( LLBG / TLV ) - イスラエル ロード / テルアビブ
飛行場実況気象(Metar)
観測時間04/21 17:50 IDT (04/21 14:50 UTC)
風向・風速西北西 10m/s
視程10km以上
天気現象
全天の4割程度の雲 雲底高度 1520m
気温16℃
湿度45%
気圧1016hPa
METARLLBG 211450Z 30020KT 9999 SCT050 16/04 Q1016 BECMG 30014KT
過去の天気等 Google飛行場航空写真 Wunderground天気予報

過去48時間のMETAR

飛行場予報(TAF)
発表時間: 4/21 14:03 IDT (4/21 11:03 UTC)
予報対象時間: 21日15時 IDT ~ 22日15時 IDT
風向・風速西北西 8m/s
視程10km以上
全天の4割程度の雲 雲底高度 910m
21日15時 IDT ~ 21日17時 IDT に一時的に
風向・風速西北西 11m/s 瞬間風速 16m/s
視程8000m
天気現象
少しの塔状積雲 雲底高度 760m
全天の8割程度の雲 雲底高度 910m
21日19時 IDT ~ 21日21時 IDT に徐々に
風向・風速南南東 3m/s
22日7時 IDT ~ 22日9時 IDT に徐々に
風向・風速西 6m/s
22日9時 IDT から 確率 30% で
視程10km以上
天気現象弱い雨
全天の8割程度の雲 雲底高度 760m
TAF LLBG 211103Z 2112/2212 30016KT 9999 SCT030
TEMPO 2112/2114 30022G32KT 8000 RA FEW025TCU BKN030
BECMG 2116/2118 16006KT
BECMG 2204/2206 26012KT
PROB30 2206/2212 9999 -RA BKN025 TX17/2112Z TN12/2203Z